sensor_id;sensor_type;location;lat;lon;timestamp;pressure;altitude;pressure_sealevel;temperature;humidity
63347;BME280;49472;49.880;8.650;2023-04-26T00:00:19;-13531.38;;;-142.94;nan
63347;BME280;49472;49.880;8.650;2023-04-26T00:02:45;-13531.38;;;-142.94;nan
63347;BME280;49472;49.880;8.650;2023-04-26T00:05:10;-13531.38;;;-142.94;nan
63347;BME280;49472;49.880;8.650;2023-04-26T00:07:35;-13531.38;;;-142.94;nan
63347;BME280;49472;49.880;8.650;2023-04-26T00:10:04;-13531.38;;;-142.94;nan
63347;BME280;49472;49.880;8.650;2023-04-26T00:12:29;-13531.38;;;-142.94;nan
63347;BME280;49472;49.880;8.650;2023-04-26T00:14:55;-13531.38;;;-142.94;nan
63347;BME280;49472;49.880;8.650;2023-04-26T00:17:22;-13531.38;;;-142.94;nan
63347;BME280;49472;49.880;8.650;2023-04-26T00:19:48;-13531.38;;;-142.94;nan
63347;BME280;49472;49.880;8.650;2023-04-26T00:22:13;-13531.38;;;-142.94;nan
63347;BME280;49472;49.880;8.650;2023-04-26T00:24:39;-13531.38;;;-142.94;nan
63347;BME280;49472;49.880;8.650;2023-04-26T00:27:06;-13531.38;;;-142.94;nan
63347;BME280;49472;49.880;8.650;2023-04-26T00:29:34;-13531.38;;;-142.94;nan
63347;BME280;49472;49.880;8.650;2023-04-26T00:31:59;-13531.38;;;-142.94;nan
63347;BME280;49472;49.880;8.650;2023-04-26T00:34:31;-13531.38;;;-142.94;nan
63347;BME280;49472;49.880;8.650;2023-04-26T00:36:56;-13531.38;;;-142.94;nan
63347;BME280;49472;49.880;8.650;2023-04-26T00:39:21;-13531.38;;;-142.94;nan
63347;BME280;49472;49.880;8.650;2023-04-26T00:41:47;-13531.38;;;-142.94;nan
63347;BME280;49472;49.880;8.650;2023-04-26T00:44:12;-13531.38;;;-142.94;nan
63347;BME280;49472;49.880;8.650;2023-04-26T00:46:38;-13531.38;;;-142.94;nan
63347;BME280;49472;49.880;8.650;2023-04-26T00:49:03;-13531.38;;;-142.94;nan
63347;BME280;49472;49.880;8.650;2023-04-26T00:51:28;-13531.38;;;-142.94;nan
63347;BME280;49472;49.880;8.650;2023-04-26T00:53:55;-13531.38;;;-142.94;nan
63347;BME280;49472;49.880;8.650;2023-04-26T00:56:20;-13531.38;;;-142.94;nan
63347;BME280;49472;49.880;8.650;2023-04-26T00:58:46;-13531.38;;;-142.94;nan
63347;BME280;49472;49.880;8.650;2023-04-26T01:01:12;-13531.38;;;-142.94;nan
63347;BME280;49472;49.880;8.650;2023-04-26T01:03:37;-13531.38;;;-142.94;nan
63347;BME280;49472;49.880;8.650;2023-04-26T01:06:03;-13531.38;;;-142.94;nan
63347;BME280;49472;49.880;8.650;2023-04-26T01:08:28;-13531.38;;;-142.94;nan
63347;BME280;49472;49.880;8.650;2023-04-26T01:10:53;-13531.38;;;-142.94;nan
63347;BME280;49472;49.880;8.650;2023-04-26T01:13:19;-13531.38;;;-142.94;nan
63347;BME280;49472;49.880;8.650;2023-04-26T01:15:45;-13531.38;;;-142.94;nan
63347;BME280;49472;49.880;8.650;2023-04-26T01:18:11;-13531.38;;;-142.94;nan
63347;BME280;49472;49.880;8.650;2023-04-26T01:20:38;-13531.38;;;-142.94;nan
63347;BME280;49472;49.880;8.650;2023-04-26T01:23:04;-13531.38;;;-142.94;nan
63347;BME280;49472;49.880;8.650;2023-04-26T01:25:30;-13531.38;;;-142.94;nan
63347;BME280;49472;49.880;8.650;2023-04-26T01:27:56;-13531.38;;;-142.94;nan
63347;BME280;49472;49.880;8.650;2023-04-26T01:30:21;-13531.38;;;-142.94;nan
63347;BME280;49472;49.880;8.650;2023-04-26T01:32:46;-13531.38;;;-142.94;nan
63347;BME280;49472;49.880;8.650;2023-04-26T01:35:12;-13531.38;;;-142.94;nan
63347;BME280;49472;49.880;8.650;2023-04-26T01:37:37;-13531.38;;;-142.94;nan
63347;BME280;49472;49.880;8.650;2023-04-26T01:40:02;-13531.38;;;-142.94;nan
63347;BME280;49472;49.880;8.650;2023-04-26T01:42:31;-13531.38;;;-142.94;nan
63347;BME280;49472;49.880;8.650;2023-04-26T01:44:57;-13531.38;;;-142.94;nan
63347;BME280;49472;49.880;8.650;2023-04-26T01:47:22;-13531.38;;;-142.94;nan
63347;BME280;49472;49.880;8.650;2023-04-26T01:49:48;-13531.38;;;-142.94;nan
63347;BME280;49472;49.880;8.650;2023-04-26T01:52:13;-13531.38;;;-142.94;nan
63347;BME280;49472;49.880;8.650;2023-04-26T01:54:38;-13531.38;;;-142.94;nan
63347;BME280;49472;49.880;8.650;2023-04-26T01:57:03;-13531.38;;;-142.94;nan
63347;BME280;49472;49.880;8.650;2023-04-26T01:59:29;-13531.38;;;-142.94;nan
63347;BME280;49472;49.880;8.650;2023-04-26T02:01:54;-13531.38;;;-142.94;nan
63347;BME280;49472;49.880;8.650;2023-04-26T02:04:20;-13531.38;;;-142.94;nan
63347;BME280;49472;49.880;8.650;2023-04-26T02:06:45;-13531.38;;;-142.94;nan
63347;BME280;49472;49.880;8.650;2023-04-26T02:09:11;-13531.38;;;-142.94;nan
63347;BME280;49472;49.880;8.650;2023-04-26T02:11:36;-13531.38;;;-142.94;nan
63347;BME280;49472;49.880;8.650;2023-04-26T02:14:01;-13531.38;;;-142.94;nan
63347;BME280;49472;49.880;8.650;2023-04-26T02:16:27;-13531.38;;;-142.94;nan
63347;BME280;49472;49.880;8.650;2023-04-26T02:18:52;-13531.38;;;-142.94;nan
63347;BME280;49472;49.880;8.650;2023-04-26T02:21:18;-13531.38;;;-142.94;nan
63347;BME280;49472;49.880;8.650;2023-04-26T02:23:44;-13531.38;;;-142.94;nan
63347;BME280;49472;49.880;8.650;2023-04-26T02:26:09;-13531.38;;;-142.94;nan
63347;BME280;49472;49.880;8.650;2023-04-26T02:28:36;-13531.38;;;-142.94;nan
63347;BME280;49472;49.880;8.650;2023-04-26T02:31:02;-13531.38;;;-142.94;nan
63347;BME280;49472;49.880;8.650;2023-04-26T02:33:27;-13531.38;;;-142.94;nan
63347;BME280;49472;49.880;8.650;2023-04-26T02:35:53;-13531.38;;;-142.94;nan
63347;BME280;49472;49.880;8.650;2023-04-26T02:38:18;-13531.38;;;-142.94;nan
63347;BME280;49472;49.880;8.650;2023-04-26T02:40:43;-13531.38;;;-142.94;nan
63347;BME280;49472;49.880;8.650;2023-04-26T02:43:09;-13531.38;;;-142.94;nan
63347;BME280;49472;49.880;8.650;2023-04-26T02:45:44;-13531.38;;;-142.94;nan
63347;BME280;49472;49.880;8.650;2023-04-26T02:48:09;-13531.38;;;-142.94;nan
63347;BME280;49472;49.880;8.650;2023-04-26T02:50:35;-13531.38;;;-142.94;nan
63347;BME280;49472;49.880;8.650;2023-04-26T02:53:00;-13531.38;;;-142.94;nan
63347;BME280;49472;49.880;8.650;2023-04-26T02:55:27;-13531.38;;;-142.94;nan
63347;BME280;49472;49.880;8.650;2023-04-26T02:57:53;-13531.38;;;-142.94;nan
63347;BME280;49472;49.880;8.650;2023-04-26T03:00:18;-13531.38;;;-142.94;nan
63347;BME280;49472;49.880;8.650;2023-04-26T03:02:44;-13531.38;;;-142.94;nan
63347;BME280;49472;49.880;8.650;2023-04-26T03:05:11;-13531.38;;;-142.94;nan
63347;BME280;49472;49.880;8.650;2023-04-26T03:07:37;-13531.38;;;-142.94;nan
63347;BME280;49472;49.880;8.650;2023-04-26T03:10:03;-13531.38;;;-142.94;nan
63347;BME280;49472;49.880;8.650;2023-04-26T03:12:29;-13531.38;;;-142.94;nan
63347;BME280;49472;49.880;8.650;2023-04-26T03:14:54;-13531.38;;;-142.94;nan
63347;BME280;49472;49.880;8.650;2023-04-26T03:17:20;-13531.38;;;-142.94;nan
63347;BME280;49472;49.880;8.650;2023-04-26T03:19:45;-13531.38;;;-142.94;nan
63347;BME280;49472;49.880;8.650;2023-04-26T03:22:11;-13531.38;;;-142.94;nan
63347;BME280;49472;49.880;8.650;2023-04-26T03:24:41;-13531.38;;;-142.94;nan
63347;BME280;49472;49.880;8.650;2023-04-26T03:27:06;-13531.38;;;-142.94;nan
63347;BME280;49472;49.880;8.650;2023-04-26T03:29:31;-13531.38;;;-142.94;nan
63347;BME280;49472;49.880;8.650;2023-04-26T03:31:57;-13531.38;;;-142.94;nan
63347;BME280;49472;49.880;8.650;2023-04-26T03:34:22;-13531.38;;;-142.94;nan
63347;BME280;49472;49.880;8.650;2023-04-26T03:36:47;-13531.38;;;-142.94;nan
63347;BME280;49472;49.880;8.650;2023-04-26T03:39:13;-13531.38;;;-142.94;nan
63347;BME280;49472;49.880;8.650;2023-04-26T03:41:38;-13531.38;;;-142.94;nan
63347;BME280;49472;49.880;8.650;2023-04-26T03:44:04;-13531.38;;;-142.94;nan
63347;BME280;49472;49.880;8.650;2023-04-26T03:46:29;-13531.38;;;-142.94;nan
63347;BME280;49472;49.880;8.650;2023-04-26T03:48:55;-13531.38;;;-142.94;nan
63347;BME280;49472;49.880;8.650;2023-04-26T03:51:20;-13531.38;;;-142.94;nan
63347;BME280;49472;49.880;8.650;2023-04-26T03:53:46;-13531.38;;;-142.94;nan
63347;BME280;49472;49.880;8.650;2023-04-26T03:56:13;-13531.38;;;-142.94;nan
63347;BME280;49472;49.880;8.650;2023-04-26T03:58:38;-13531.38;;;-142.94;nan
63347;BME280;49472;49.880;8.650;2023-04-26T04:01:03;-13531.38;;;-142.94;nan
63347;BME280;49472;49.880;8.650;2023-04-26T04:03:29;-13531.38;;;-142.94;nan
63347;BME280;49472;49.880;8.650;2023-04-26T04:05:54;-13531.38;;;-142.94;nan
63347;BME280;49472;49.880;8.650;2023-04-26T04:08:20;-13531.38;;;-142.94;nan
63347;BME280;49472;49.880;8.650;2023-04-26T04:10:46;-13531.38;;;-142.94;nan
63347;BME280;49472;49.880;8.650;2023-04-26T04:13:11;-13531.38;;;-142.94;nan
63347;BME280;49472;49.880;8.650;2023-04-26T04:15:36;-13531.38;;;-142.94;nan
63347;BME280;49472;49.880;8.650;2023-04-26T04:18:02;-13531.38;;;-142.94;nan
63347;BME280;49472;49.880;8.650;2023-04-26T04:20:28;-13531.38;;;-142.94;nan
63347;BME280;49472;49.880;8.650;2023-04-26T04:22:53;-13531.38;;;-142.94;nan
63347;BME280;49472;49.880;8.650;2023-04-26T04:25:19;-13531.38;;;-142.94;nan
63347;BME280;49472;49.880;8.650;2023-04-26T04:27:47;-13531.38;;;-142.94;nan
63347;BME280;49472;49.880;8.650;2023-04-26T04:30:12;-13531.38;;;-142.94;nan
63347;BME280;49472;49.880;8.650;2023-04-26T04:32:38;-13531.38;;;-142.94;nan
63347;BME280;49472;49.880;8.650;2023-04-26T04:35:06;-13531.38;;;-142.94;nan
63347;BME280;49472;49.880;8.650;2023-04-26T04:37:32;-13531.38;;;-142.94;nan
63347;BME280;49472;49.880;8.650;2023-04-26T04:39:58;-13531.38;;;-142.94;nan
63347;BME280;49472;49.880;8.650;2023-04-26T04:42:23;-13531.38;;;-142.94;nan
63347;BME280;49472;49.880;8.650;2023-04-26T04:44:51;-13531.38;;;-142.94;nan
63347;BME280;49472;49.880;8.650;2023-04-26T04:47:16;-13531.38;;;-142.94;nan
63347;BME280;49472;49.880;8.650;2023-04-26T04:49:41;-13531.38;;;-142.94;nan
63347;BME280;49472;49.880;8.650;2023-04-26T04:52:07;-13531.38;;;-142.94;nan
63347;BME280;49472;49.880;8.650;2023-04-26T04:54:32;-13531.38;;;-142.94;nan
63347;BME280;49472;49.880;8.650;2023-04-26T04:56:58;-13531.38;;;-142.94;nan
63347;BME280;49472;49.880;8.650;2023-04-26T04:59:24;-13531.38;;;-142.94;nan
63347;BME280;49472;49.880;8.650;2023-04-26T05:01:49;-13531.38;;;-142.94;nan
63347;BME280;49472;49.880;8.650;2023-04-26T05:04:15;-13531.38;;;-142.94;nan
63347;BME280;49472;49.880;8.650;2023-04-26T05:06:41;-13531.38;;;-142.94;nan
63347;BME280;49472;49.880;8.650;2023-04-26T05:09:07;-13531.38;;;-142.94;nan
63347;BME280;49472;49.880;8.650;2023-04-26T05:11:32;-13531.38;;;-142.94;nan
63347;BME280;49472;49.880;8.650;2023-04-26T05:13:58;-13531.38;;;-142.94;nan
63347;BME280;49472;49.880;8.650;2023-04-26T05:16:23;-13531.38;;;-142.94;nan
63347;BME280;49472;49.880;8.650;2023-04-26T05:18:49;-13531.38;;;-142.94;nan
63347;BME280;49472;49.880;8.650;2023-04-26T05:21:14;-13531.38;;;-142.94;nan
63347;BME280;49472;49.880;8.650;2023-04-26T05:23:40;-13531.38;;;-142.94;nan
63347;BME280;49472;49.880;8.650;2023-04-26T05:26:06;-13531.38;;;-142.94;nan
63347;BME280;49472;49.880;8.650;2023-04-26T05:28:32;-13531.38;;;-142.94;nan
63347;BME280;49472;49.880;8.650;2023-04-26T05:30:58;-13531.38;;;-142.94;nan
63347;BME280;49472;49.880;8.650;2023-04-26T05:33:24;-13531.38;;;-142.94;nan
63347;BME280;49472;49.880;8.650;2023-04-26T05:35:50;-13531.38;;;-142.94;nan
63347;BME280;49472;49.880;8.650;2023-04-26T05:38:16;-13531.38;;;-142.94;nan
63347;BME280;49472;49.880;8.650;2023-04-26T05:40:42;-13531.38;;;-142.94;nan
63347;BME280;49472;49.880;8.650;2023-04-26T05:43:07;-13531.38;;;-142.94;nan
63347;BME280;49472;49.880;8.650;2023-04-26T05:45:33;-13531.38;;;-142.94;nan
63347;BME280;49472;49.880;8.650;2023-04-26T05:47:58;-13531.38;;;-142.94;nan
63347;BME280;49472;49.880;8.650;2023-04-26T05:50:24;-13531.38;;;-142.94;nan
63347;BME280;49472;49.880;8.650;2023-04-26T05:52:50;-13531.38;;;-142.94;nan
63347;BME280;49472;49.880;8.650;2023-04-26T05:55:15;-13531.38;;;-142.94;nan
63347;BME280;49472;49.880;8.650;2023-04-26T05:57:41;-13531.38;;;-142.94;nan
63347;BME280;49472;49.880;8.650;2023-04-26T06:00:06;-13531.38;;;-142.94;nan
63347;BME280;49472;49.880;8.650;2023-04-26T06:02:35;-13531.38;;;-142.94;nan
63347;BME280;49472;49.880;8.650;2023-04-26T06:05:00;-13531.38;;;-142.94;nan
63347;BME280;49472;49.880;8.650;2023-04-26T06:07:25;-13531.38;;;-142.94;nan
63347;BME280;49472;49.880;8.650;2023-04-26T06:09:51;-13531.38;;;-142.94;nan
63347;BME280;49472;49.880;8.650;2023-04-26T06:12:16;-13531.38;;;-142.94;nan
63347;BME280;49472;49.880;8.650;2023-04-26T06:14:41;-13531.38;;;-142.94;nan
63347;BME280;49472;49.880;8.650;2023-04-26T06:17:07;-13531.38;;;-142.94;nan
63347;BME280;49472;49.880;8.650;2023-04-26T06:19:33;-13531.38;;;-142.94;nan
63347;BME280;49472;49.880;8.650;2023-04-26T06:21:58;-13531.38;;;-142.94;nan
63347;BME280;49472;49.880;8.650;2023-04-26T06:24:24;-13531.38;;;-142.94;nan
63347;BME280;49472;49.880;8.650;2023-04-26T06:26:50;-13531.38;;;-142.94;nan
63347;BME280;49472;49.880;8.650;2023-04-26T06:29:16;-13531.38;;;-142.94;nan
63347;BME280;49472;49.880;8.650;2023-04-26T06:31:41;-13531.38;;;-142.94;nan
63347;BME280;49472;49.880;8.650;2023-04-26T06:34:07;-13531.38;;;-142.94;nan
63347;BME280;49472;49.880;8.650;2023-04-26T06:36:32;-13531.38;;;-142.94;nan
63347;BME280;49472;49.880;8.650;2023-04-26T06:38:57;-13531.38;;;-142.94;nan
63347;BME280;49472;49.880;8.650;2023-04-26T06:41:23;-13531.38;;;-142.94;nan
63347;BME280;49472;49.880;8.650;2023-04-26T06:43:48;-13531.38;;;-142.94;nan
63347;BME280;49472;49.880;8.650;2023-04-26T06:46:13;-13531.38;;;-142.94;nan
63347;BME280;49472;49.880;8.650;2023-04-26T06:48:39;-13531.38;;;-142.94;nan
63347;BME280;49472;49.880;8.650;2023-04-26T06:51:08;-13531.38;;;-142.94;nan
63347;BME280;49472;49.880;8.650;2023-04-26T06:53:34;-13531.38;;;-142.94;nan
63347;BME280;49472;49.880;8.650;2023-04-26T06:56:00;-13531.38;;;-142.94;nan
63347;BME280;49472;49.880;8.650;2023-04-26T06:58:25;-13531.38;;;-142.94;nan
63347;BME280;49472;49.880;8.650;2023-04-26T07:00:50;-13531.38;;;-142.94;nan
63347;BME280;49472;49.880;8.650;2023-04-26T07:03:16;-13531.38;;;-142.94;nan
63347;BME280;49472;49.880;8.650;2023-04-26T07:05:41;-13531.38;;;-142.94;nan
63347;BME280;49472;49.880;8.650;2023-04-26T07:08:06;-13531.38;;;-142.94;nan
63347;BME280;49472;49.880;8.650;2023-04-26T07:10:32;-13531.38;;;-142.94;nan
63347;BME280;49472;49.880;8.650;2023-04-26T07:12:57;-13531.38;;;-142.94;nan
63347;BME280;49472;49.880;8.650;2023-04-26T07:15:23;-13531.38;;;-142.94;nan
63347;BME280;49472;49.880;8.650;2023-04-26T07:17:48;-13531.38;;;-142.94;nan
63347;BME280;49472;49.880;8.650;2023-04-26T07:20:13;-13531.38;;;-142.94;nan
63347;BME280;49472;49.880;8.650;2023-04-26T07:22:44;-13531.38;;;-142.94;nan
63347;BME280;49472;49.880;8.650;2023-04-26T07:25:09;-13531.38;;;-142.94;nan
63347;BME280;49472;49.880;8.650;2023-04-26T07:27:35;-13531.38;;;-142.94;nan
63347;BME280;49472;49.880;8.650;2023-04-26T07:30:00;-13531.38;;;-142.94;nan
63347;BME280;49472;49.880;8.650;2023-04-26T07:32:26;-13531.38;;;-142.94;nan
63347;BME280;49472;49.880;8.650;2023-04-26T07:34:51;-13531.38;;;-142.94;nan
63347;BME280;49472;49.880;8.650;2023-04-26T07:37:17;-13531.38;;;-142.94;nan
63347;BME280;49472;49.880;8.650;2023-04-26T07:39:42;-13531.38;;;-142.94;nan
63347;BME280;49472;49.880;8.650;2023-04-26T07:42:07;-13531.38;;;-142.94;nan
63347;BME280;49472;49.880;8.650;2023-04-26T07:44:33;-13531.38;;;-142.94;nan
63347;BME280;49472;49.880;8.650;2023-04-26T07:46:58;-13531.38;;;-142.94;nan
63347;BME280;49472;49.880;8.650;2023-04-26T07:49:24;-13531.38;;;-142.94;nan
63347;BME280;49472;49.880;8.650;2023-04-26T07:51:52;-13531.38;;;-142.94;nan
63347;BME280;49472;49.880;8.650;2023-04-26T07:54:17;-13531.38;;;-142.94;nan
63347;BME280;49472;49.880;8.650;2023-04-26T07:56:43;-13531.38;;;-142.94;nan
63347;BME280;49472;49.880;8.650;2023-04-26T07:59:08;-13531.38;;;-142.94;nan
63347;BME280;49472;49.880;8.650;2023-04-26T08:01:33;-13531.38;;;-142.94;nan
63347;BME280;49472;49.880;8.650;2023-04-26T08:03:59;-13531.38;;;-142.94;nan
63347;BME280;49472;49.880;8.650;2023-04-26T08:06:24;-13531.38;;;-142.94;nan
63347;BME280;49472;49.880;8.650;2023-04-26T08:08:50;-13531.38;;;-142.94;nan
63347;BME280;49472;49.880;8.650;2023-04-26T08:11:17;-13531.38;;;-142.94;nan
63347;BME280;49472;49.880;8.650;2023-04-26T08:13:42;-13531.38;;;-142.94;nan
63347;BME280;49472;49.880;8.650;2023-04-26T08:16:10;-13531.38;;;-142.94;nan
63347;BME280;49472;49.880;8.650;2023-04-26T08:18:36;-13531.38;;;-142.94;nan
63347;BME280;49472;49.880;8.650;2023-04-26T08:21:01;-13531.38;;;-142.94;nan
63347;BME280;49472;49.880;8.650;2023-04-26T08:23:26;-13531.38;;;-142.94;nan
63347;BME280;49472;49.880;8.650;2023-04-26T08:25:52;-13531.38;;;-142.94;nan
63347;BME280;49472;49.880;8.650;2023-04-26T08:28:18;-13531.38;;;-142.94;nan
63347;BME280;49472;49.880;8.650;2023-04-26T08:30:43;-13531.38;;;-142.94;nan
63347;BME280;49472;49.880;8.650;2023-04-26T08:33:09;-13531.38;;;-142.94;nan
63347;BME280;49472;49.880;8.650;2023-04-26T08:35:34;-13531.38;;;-142.94;nan
63347;BME280;49472;49.880;8.650;2023-04-26T08:38:00;-13531.38;;;-142.94;nan
63347;BME280;49472;49.880;8.650;2023-04-26T08:40:25;-13531.38;;;-142.94;nan
63347;BME280;49472;49.880;8.650;2023-04-26T08:42:51;-13531.38;;;-142.94;nan
63347;BME280;49472;49.880;8.650;2023-04-26T08:45:21;-13531.38;;;-142.94;nan
63347;BME280;49472;49.880;8.650;2023-04-26T08:47:48;-13531.38;;;-142.94;nan
63347;BME280;49472;49.880;8.650;2023-04-26T08:50:15;-13531.38;;;-142.94;nan
63347;BME280;49472;49.880;8.650;2023-04-26T08:52:41;-13531.38;;;-142.94;nan
63347;BME280;49472;49.880;8.650;2023-04-26T08:55:10;-13531.38;;;-142.94;nan
63347;BME280;49472;49.880;8.650;2023-04-26T08:57:37;-13531.38;;;-142.94;nan
63347;BME280;49472;49.880;8.650;2023-04-26T09:00:05;-13531.38;;;-142.94;nan
63347;BME280;49472;49.880;8.650;2023-04-26T09:02:35;-13531.38;;;-142.94;nan
63347;BME280;49472;49.880;8.650;2023-04-26T09:05:01;-13531.38;;;-142.94;nan
63347;BME280;49472;49.880;8.650;2023-04-26T09:07:34;-13531.38;;;-142.94;nan
63347;BME280;49472;49.880;8.650;2023-04-26T09:10:04;-13531.38;;;-142.94;nan
63347;BME280;49472;49.880;8.650;2023-04-26T09:12:30;-13531.38;;;-142.94;nan
63347;BME280;49472;49.880;8.650;2023-04-26T09:14:55;-13531.38;;;-142.94;nan
63347;BME280;49472;49.880;8.650;2023-04-26T09:19:53;-13531.38;;;-142.94;nan
63347;BME280;49472;49.880;8.650;2023-04-26T09:22:33;-13531.38;;;-142.94;nan
63347;BME280;49472;49.880;8.650;2023-04-26T09:25:00;-13531.38;;;-142.94;nan
63347;BME280;49472;49.880;8.650;2023-04-26T09:27:32;-13531.38;;;-142.94;nan
63347;BME280;49472;49.880;8.650;2023-04-26T09:30:01;-13531.38;;;-142.94;nan
63347;BME280;49472;49.880;8.650;2023-04-26T09:35:42;-13531.38;;;-142.94;nan
63347;BME280;49472;49.880;8.650;2023-04-26T09:38:08;-13531.38;;;-142.94;nan
63347;BME280;49472;49.880;8.650;2023-04-26T09:40:37;-13531.38;;;-142.94;nan
63347;BME280;49472;49.880;8.650;2023-04-26T09:45:51;-13531.38;;;-142.94;nan
63347;BME280;49472;49.880;8.650;2023-04-26T09:50:51;-13531.38;;;-142.94;nan
63347;BME280;49472;49.880;8.650;2023-04-26T09:55:53;-13042.06;;;-142.94;nan
63347;BME280;49472;49.880;8.650;2023-04-26T09:58:18;-13531.38;;;-142.94;nan
63347;BME280;49472;49.880;8.650;2023-04-26T10:00:44;-13529.94;;;-142.94;nan
63347;BME280;49472;49.880;8.650;2023-04-26T10:03:14;-12310.13;;;-142.94;nan
63347;BME280;49472;49.880;8.650;2023-04-26T10:05:40;-10601.66;;;-142.94;nan
63347;BME280;49472;49.880;8.650;2023-04-26T10:08:06;-10845.78;;;-142.94;nan
63347;BME280;49472;49.880;8.650;2023-04-26T10:10:31;-11333.97;;;-142.94;nan
63347;BME280;49472;49.880;8.650;2023-04-26T10:12:57;-11089.88;;;-142.94;nan
63347;BME280;49472;49.880;8.650;2023-04-26T10:15:23;-11333.97;;;-142.94;nan
63347;BME280;49472;49.880;8.650;2023-04-26T10:17:48;-9624.97;;;-142.94;nan
63347;BME280;49472;49.880;8.650;2023-04-26T10:20:14;-8159.41;;;-142.94;nan
63347;BME280;49472;49.880;8.650;2023-04-26T10:22:51;-6693.19;;;-142.94;nan
63347;BME280;49472;49.880;8.650;2023-04-26T10:25:17;-5226.31;;;-142.94;nan
63347;BME280;49472;49.880;8.650;2023-04-26T10:27:52;-4981.75;;;-142.94;nan
63347;BME280;49472;49.880;8.650;2023-04-26T10:30:19;-3514.09;;;-142.94;nan
63347;BME280;49472;49.880;8.650;2023-04-26T10:35:18;-1801.00;;;-142.94;nan
63347;BME280;49472;49.880;8.650;2023-04-26T10:40:32;-1801.00;;;-142.94;nan
63347;BME280;49472;49.880;8.650;2023-04-26T10:45:43;2118.00;;;-142.94;nan
63347;BME280;49472;49.880;8.650;2023-04-26T10:48:29;402.84;;;-142.94;nan
63347;BME280;49472;49.880;8.650;2023-04-26T10:55:51;157.91;;;-142.94;nan
63347;BME280;49472;49.880;8.650;2023-04-26T10:58:31;5060.34;;;-142.94;nan
63347;BME280;49472;49.880;8.650;2023-04-26T11:01:08;1627.88;;;-142.94;nan
63347;BME280;49472;49.880;8.650;2023-04-26T11:03:37;647.81;;;-142.94;nan
63347;BME280;49472;49.880;8.650;2023-04-26T11:06:10;3343.66;;;-142.94;nan
63347;BME280;49472;49.880;8.650;2023-04-26T11:08:39;11198.66;;;-142.94;nan
63347;BME280;49472;49.880;8.650;2023-04-26T11:11:09;28693.81;;;-142.94;nan
63347;BME280;49472;49.880;8.650;2023-04-26T11:13:36;28199.72;;;-142.94;nan
63347;BME280;49472;49.880;8.650;2023-04-26T11:16:04;29187.97;;;-142.94;nan
63347;BME280;49472;49.880;8.650;2023-04-26T11:18:34;37352.13;;;-142.94;nan
63347;BME280;49472;49.880;8.650;2023-04-26T11:21:00;40167.03;;;-142.94;nan
63347;BME280;49472;49.880;8.650;2023-04-26T11:23:27;41246.00;;;-142.94;nan
63347;BME280;49472;49.880;8.650;2023-04-26T11:25:53;50183.47;;;-142.94;nan
63347;BME280;49472;49.880;8.650;2023-04-26T11:28:21;51180.16;;;-142.94;nan
63347;BME280;49472;49.880;8.650;2023-04-26T11:30:49;51850.59;;;-142.94;nan
63347;BME280;49472;49.880;8.650;2023-04-26T11:33:19;52111.03;;;-142.94;nan
63347;BME280;49472;49.880;8.650;2023-04-26T11:35:48;51906.97;;;-142.94;nan
63347;BME280;49472;49.880;8.650;2023-04-26T11:38:13;51955.56;;;-142.94;nan
63347;BME280;49472;49.880;8.650;2023-04-26T11:40:39;51685.41;;;-142.94;nan
63347;BME280;49472;49.880;8.650;2023-04-26T11:43:07;52056.63;;;-142.94;nan
63347;BME280;49472;49.880;8.650;2023-04-26T11:45:34;51119.91;;;-142.94;nan
63347;BME280;49472;49.880;8.650;2023-04-26T11:48:01;51442.47;;;-142.94;nan
63347;BME280;49472;49.880;8.650;2023-04-26T11:50:28;51815.63;;;-142.94;nan
63347;BME280;49472;49.880;8.650;2023-04-26T11:52:55;51318.13;;;-142.94;nan
63347;BME280;49472;49.880;8.650;2023-04-26T11:55:28;51557.13;;;-142.94;nan
63347;BME280;49472;49.880;8.650;2023-04-26T11:57:55;51481.34;;;-142.94;nan
63347;BME280;49472;49.880;8.650;2023-04-26T12:00:22;51656.25;;;-142.94;nan
63347;BME280;49472;49.880;8.650;2023-04-26T12:02:49;51174.31;;;-142.94;nan
63347;BME280;49472;49.880;8.650;2023-04-26T12:05:26;51178.22;;;-142.94;nan
63347;BME280;49472;49.880;8.650;2023-04-26T12:07:53;51570.75;;;-142.94;nan
63347;BME280;49472;49.880;8.650;2023-04-26T12:12:50;51259.81;;;-142.94;nan
63347;BME280;49472;49.880;8.650;2023-04-26T12:15:36;50410.75;;;-142.94;nan
63347;BME280;49472;49.880;8.650;2023-04-26T12:18:08;50189.31;;;-142.94;nan
63347;BME280;49472;49.880;8.650;2023-04-26T12:20:38;50350.53;;;-142.94;nan
63347;BME280;49472;49.880;8.650;2023-04-26T12:23:09;50033.91;;;-142.94;nan
63347;BME280;49472;49.880;8.650;2023-04-26T12:25:36;50117.44;;;-142.94;nan
63347;BME280;49472;49.880;8.650;2023-04-26T12:28:03;50537.03;;;-142.94;nan
63347;BME280;49472;49.880;8.650;2023-04-26T12:30:29;50241.75;;;-142.94;nan
63347;BME280;49472;49.880;8.650;2023-04-26T12:32:56;50111.59;;;-142.94;nan
63347;BME280;49472;49.880;8.650;2023-04-26T12:35:24;50113.53;;;-142.94;nan
63347;BME280;49472;49.880;8.650;2023-04-26T12:37:50;49859.09;;;-142.94;nan
63347;BME280;49472;49.880;8.650;2023-04-26T12:40:18;49639.59;;;-142.94;nan
63347;BME280;49472;49.880;8.650;2023-04-26T12:42:46;49796.94;;;-142.94;nan
63347;BME280;49472;49.880;8.650;2023-04-26T12:45:11;49695.94;;;-142.94;nan
63347;BME280;49472;49.880;8.650;2023-04-26T12:47:36;49604.66;;;-142.94;nan
63347;BME280;49472;49.880;8.650;2023-04-26T12:50:02;49622.13;;;-142.94;nan
63347;BME280;49472;49.880;8.650;2023-04-26T12:52:29;49598.81;;;-142.94;nan
63347;BME280;49472;49.880;8.650;2023-04-26T12:54:54;49577.47;;;-142.94;nan
63347;BME280;49472;49.880;8.650;2023-04-26T12:57:20;49591.06;;;-142.94;nan
63347;BME280;49472;49.880;8.650;2023-04-26T12:59:46;49593.00;;;-142.94;nan
63347;BME280;49472;49.880;8.650;2023-04-26T13:02:11;49635.72;;;-142.94;nan
63347;BME280;49472;49.880;8.650;2023-04-26T13:04:37;49569.69;;;-142.94;nan
63347;BME280;49472;49.880;8.650;2023-04-26T13:07:03;49728.94;;;-142.94;nan
63347;BME280;49472;49.880;8.650;2023-04-26T13:09:28;49727.00;;;-142.94;nan
63347;BME280;49472;49.880;8.650;2023-04-26T13:11:53;49795.00;;;-142.94;nan
63347;BME280;49472;49.880;8.650;2023-04-26T13:14:19;49721.19;;;-142.94;nan
63347;BME280;49472;49.880;8.650;2023-04-26T13:16:45;49641.56;;;-142.94;nan